Wenonah, Alabama
Current Conditions -  °F | °C
As of 8:53 AM on Thursday 23 Oct 2014 (Local Time) from KBHM Reporting Station
Scattered Clouds Scattered Clouds  
Wind Chill: 50°   Ceiling: Unl
Heat Index: 50°   Visibility: 10mi
Dew Point: 41°   Wind: 8mph
Humidity: 71%   Direction: 70°ENE
Pressure: 30.17"   Gusts: 16mph
Location:  33.4593°N, 86.8623°W
Report Text: KBHM 231353Z 07007G14KT 10SM SCT250 10/05 A3017 RMK AO2 SLP216 T01000050
Loading
Personal Weather Stations






























Interactive Weather Map
Tropical Storm Tracking
New forecast layout! Learn more

10-Day Weather Forecast

Advertisements
Track Severe Weather on mobile